Time;durP1;ratioP1;P1;durP2;ratioP2;P2;SDS_P1;SDS_P2;PMS_P1;PMS_P2;Temp;Humidity;BMP_temperature;BMP_pressure;BME280_temperature;BME280_humidity;BME280_pressure;Samples;Min_cycle;Max_cycle;Signal;HPM_P1;HPM_P2
2023/06/17 00:01:30;;;;;;;0.00;0.00;;;;;;;18.24;48.12;100398.75;4982683;28;20125;-72
2023/06/17 00:03:55;;;;;;;0.00;0.00;;;;;;;18.17;48.31;100392.88;4975876;28;20097;-73
2023/06/17 00:06:21;;;;;;;0.00;0.00;;;;;;;18.13;48.39;100397.41;4997284;28;20065;-71
2023/06/17 00:08:46;;;;;;;0.00;0.00;;;;;;;18.13;48.86;100400.16;4962479;28;20655;-70
2023/06/17 00:11:12;;;;;;;0.00;0.00;;;;;;;18.06;49.10;100403.41;4976548;28;20045;-76
2023/06/17 00:13:38;;;;;;;0.00;0.00;;;;;;;18.01;48.90;100405.47;4963189;28;20487;-73
2023/06/17 00:16:04;;;;;;;0.00;0.00;;;;;;;17.94;48.87;100397.63;4974665;28;20031;-74
2023/06/17 00:18:32;;;;;;;0.00;0.00;;;;;;;17.92;49.17;100403.47;4982459;28;20568;-73
2023/06/17 00:20:58;;;;;;;0.00;0.00;;;;;;;17.89;49.14;100381.94;4975890;28;20030;-74
2023/06/17 00:23:24;;;;;;;0.00;0.00;;;;;;;17.90;49.02;100372.56;4983901;28;20034;-73
2023/06/17 00:25:49;;;;;;;0.00;0.00;;;;;;;17.90;49.28;100361.50;4958113;28;20480;-74
2023/06/17 00:28:16;;;;;;;0.00;0.00;;;;;;;17.86;49.65;100360.47;4967086;28;20034;-73
2023/06/17 00:30:44;;;;;;;0.00;0.00;;;;;;;17.87;49.23;100378.69;4983581;28;20034;-75
2023/06/17 00:33:09;;;;;;;0.00;0.00;;;;;;;17.80;49.62;100381.91;4967500;28;20027;-75
2023/06/17 00:35:35;;;;;;;0.00;0.00;;;;;;;17.71;49.58;100366.38;4995242;28;20105;-74
2023/06/17 00:38:01;;;;;;;0.00;0.00;;;;;;;17.62;50.09;100355.25;4961163;28;20022;-73
2023/06/17 00:40:26;;;;;;;0.00;0.00;;;;;;;17.59;49.94;100356.69;4975796;28;20035;-73
2023/06/17 00:42:52;;;;;;;0.00;0.00;;;;;;;17.60;49.92;100366.63;4974249;28;20034;-72
2023/06/17 00:45:17;;;;;;;0.00;0.00;;;;;;;17.59;50.02;100367.75;4973397;28;20403;-73
2023/06/17 00:47:43;;;;;;;0.00;0.00;;;;;;;17.54;50.21;100362.38;4981420;28;20092;-71
2023/06/17 00:50:12;;;;;;;0.00;0.00;;;;;;;17.55;50.05;100366.78;4972535;28;20054;-72
2023/06/17 00:52:39;;;;;;;0.00;0.00;;;;;;;17.54;50.17;100365.13;4973580;28;20137;-72
2023/06/17 00:55:06;;;;;;;0.00;0.00;;;;;;;17.56;50.11;100365.63;4979927;28;20101;-72
2023/06/17 00:57:33;;;;;;;0.00;0.00;;;;;;;17.53;50.30;100366.25;4977407;28;20230;-72
2023/06/17 00:59:59;;;;;;;0.00;0.00;;;;;;;17.51;50.32;100363.00;4975111;28;20456;-72
2023/06/17 01:02:25;;;;;;;0.00;0.00;;;;;;;17.53;49.60;100362.69;4979429;28;20216;-72
2023/06/17 01:04:52;;;;;;;0.00;0.00;;;;;;;17.57;49.80;100358.16;4983121;28;20058;-72
2023/06/17 01:07:52;;;;;;;0.00;0.00;;;;;;;17.62;49.65;100360.78;4976396;28;22538;-70
2023/06/17 01:10:50;;;;;;;0.00;0.00;;;;;;;17.69;49.46;100354.81;4971774;28;20082;-70
2023/06/17 01:13:17;;;;;;;0.00;0.00;;;;;;;17.69;49.92;100346.53;4982546;28;20038;-72
2023/06/17 01:15:43;;;;;;;0.00;0.00;;;;;;;17.67;49.80;100340.47;4971810;28;20069;-72
2023/06/17 01:18:09;;;;;;;0.00;0.00;;;;;;;17.72;49.47;100349.47;4982775;28;20030;-72
2023/06/17 01:20:39;;;;;;;0.00;0.00;;;;;;;17.71;49.73;100339.56;4968622;28;20031;-70
2023/06/17 01:23:06;;;;;;;0.00;0.00;;;;;;;17.74;49.42;100346.38;4977238;28;20033;-71
2023/06/17 01:25:31;;;;;;;0.00;0.00;;;;;;;17.72;49.31;100351.41;4981683;28;20481;-70
2023/06/17 01:28:15;;;;;;;0.00;0.00;;;;;;;17.72;49.89;100352.22;4971892;28;20041;-71
2023/06/17 01:30:41;;;;;;;0.00;0.00;;;;;;;17.67;49.64;100351.53;4992625;28;20034;-71
2023/06/17 01:33:06;;;;;;;0.00;0.00;;;;;;;17.63;49.83;100346.63;4979492;28;20065;-71
2023/06/17 01:35:32;;;;;;;0.00;0.00;;;;;;;17.61;49.64;100342.59;4982986;28;20042;-72
2023/06/17 01:38:07;;;;;;;0.00;0.00;;;;;;;17.60;49.75;100341.75;4970450;28;20030;-70
2023/06/17 01:40:34;;;;;;;0.00;0.00;;;;;;;17.58;49.93;100338.50;4973013;28;20043;-72
2023/06/17 01:43:02;;;;;;;0.00;0.00;;;;;;;17.57;49.91;100327.75;4975917;28;20033;-72
2023/06/17 01:45:29;;;;;;;0.00;0.00;;;;;;;17.52;49.85;100320.41;4971726;28;20384;-71
2023/06/17 01:47:54;;;;;;;0.00;0.00;;;;;;;17.51;50.35;100338.13;4978862;28;20030;-73
2023/06/17 01:50:20;;;;;;;0.00;0.00;;;;;;;17.42;50.14;100332.53;4974700;28;20459;-72
2023/06/17 01:52:46;;;;;;;0.00;0.00;;;;;;;17.43;50.68;100344.38;4979220;28;20058;-72
2023/06/17 01:55:13;;;;;;;0.00;0.00;;;;;;;17.44;50.59;100355.13;4972970;28;20036;-71
2023/06/17 01:57:39;;;;;;;0.00;0.00;;;;;;;17.35;50.64;100345.97;4979225;28;20026;-73
2023/06/17 02:00:05;;;;;;;0.00;0.00;;;;;;;17.30;50.92;100348.03;4972574;28;20070;-71
2023/06/17 02:02:31;;;;;;;0.00;0.00;;;;;;;17.17;51.40;100333.97;4982794;28;20034;-72
2023/06/17 02:04:57;;;;;;;0.00;0.00;;;;;;;17.15;51.48;100336.22;4979986;28;20032;-72
2023/06/17 02:07:24;;;;;;;0.00;0.00;;;;;;;17.13;51.85;100321.91;4967112;28;20038;-70
2023/06/17 02:09:50;;;;;;;0.00;0.00;;;;;;;17.11;51.49;100313.09;4971507;28;20087;-73
2023/06/17 02:12:15;;;;;;;0.00;0.00;;;;;;;17.14;51.91;100318.00;4994904;28;20480;-71
2023/06/17 02:14:40;;;;;;;0.00;0.00;;;;;;;17.12;51.87;100306.44;4978023;28;20027;-72
2023/06/17 02:17:08;;;;;;;0.00;0.00;;;;;;;17.10;51.54;100301.25;4977896;28;20029;-71
2023/06/17 02:19:35;;;;;;;0.00;0.00;;;;;;;17.10;51.77;100294.91;4978088;28;20026;-72
2023/06/17 02:22:02;;;;;;;0.00;0.00;;;;;;;17.12;51.94;100292.63;4978802;28;20038;-72
2023/06/17 02:24:27;;;;;;;0.00;0.00;;;;;;;17.17;51.95;100295.28;4982809;28;20034;-71
2023/06/17 02:26:53;;;;;;;0.00;0.00;;;;;;;17.19;51.98;100297.75;4967917;28;20092;-72
2023/06/17 02:29:18;;;;;;;0.00;0.00;;;;;;;17.18;51.95;100294.13;4978620;28;20046;-71
2023/06/17 02:31:44;;;;;;;0.00;0.00;;;;;;;17.13;51.85;100294.28;4977123;28;20034;-71
2023/06/17 02:34:09;;;;;;;0.00;0.00;;;;;;;17.04;52.45;100302.50;4982001;28;20400;-72
2023/06/17 02:36:39;;;;;;;0.00;0.00;;;;;;;16.98;52.25;100313.97;4970659;28;20035;-71
2023/06/17 02:39:06;;;;;;;0.00;0.00;;;;;;;16.90;52.61;100302.53;4997907;28;20038;-70
2023/06/17 02:41:32;;;;;;;0.00;0.00;;;;;;;16.87;53.00;100303.16;4983401;28;20041;-72
2023/06/17 02:43:57;;;;;;;0.00;0.00;;;;;;;16.85;52.56;100299.03;4966333;28;20117;-71
2023/06/17 02:46:24;;;;;;;0.00;0.00;;;;;;;16.83;53.67;100299.34;4983029;28;20121;-71
2023/06/17 02:48:50;;;;;;;0.00;0.00;;;;;;;16.78;53.46;100293.97;4974169;28;20089;-71
2023/06/17 02:51:15;;;;;;;0.00;0.00;;;;;;;16.73;53.67;100288.53;4979266;28;20043;-70
2023/06/17 02:53:41;;;;;;;0.00;0.00;;;;;;;16.73;53.84;100278.31;4976360;28;20058;-70
2023/06/17 02:56:06;;;;;;;0.00;0.00;;;;;;;16.79;53.76;100272.66;4981490;28;20435;-71
2023/06/17 02:58:32;;;;;;;0.00;0.00;;;;;;;16.85;53.95;100272.25;4981995;28;20384;-71
2023/06/17 03:00:57;;;;;;;0.00;0.00;;;;;;;16.90;53.95;100263.88;4971826;28;20492;-72
2023/06/17 03:03:33;;;;;;;0.00;0.00;;;;;;;16.93;53.72;100274.28;4980985;28;20041;-72
2023/06/17 03:06:01;;;;;;;0.00;0.00;;;;;;;16.98;53.64;100273.38;4974474;28;20034;-71
2023/06/17 03:08:30;;;;;;;0.00;0.00;;;;;;;17.03;53.51;100283.47;4978244;28;20080;-71
2023/06/17 03:10:55;;;;;;;0.00;0.00;;;;;;;17.01;53.71;100274.66;4970201;28;20019;-70
2023/06/17 03:13:21;;;;;;;0.00;0.00;;;;;;;16.98;54.11;100276.13;4979608;28;20030;-71
2023/06/17 03:15:47;;;;;;;0.00;0.00;;;;;;;16.98;53.93;100273.38;4985400;28;20472;-71
2023/06/17 03:18:13;;;;;;;0.00;0.00;;;;;;;17.04;53.90;100268.50;4941936;28;20046;-70
2023/06/17 03:20:40;;;;;;;0.00;0.00;;;;;;;17.09;54.07;100258.16;4980405;28;20467;-71
2023/06/17 03:23:05;;;;;;;0.00;0.00;;;;;;;17.18;53.83;100260.97;4975874;28;20026;-72
2023/06/17 03:25:31;;;;;;;0.00;0.00;;;;;;;17.24;53.50;100262.50;4982317;28;20029;-71
2023/06/17 03:28:00;;;;;;;0.00;0.00;;;;;;;17.26;53.33;100265.75;4958244;28;20651;-71
2023/06/17 03:30:26;;;;;;;0.00;0.00;;;;;;;17.27;53.37;100266.56;4983314;28;20036;-73
2023/06/17 03:32:57;;;;;;;0.00;0.00;;;;;;;17.31;53.46;100264.00;4973941;28;20061;-72
2023/06/17 03:35:25;;;;;;;0.00;0.00;;;;;;;17.36;53.20;100263.88;4977403;28;20022;-72
2023/06/17 03:37:51;;;;;;;0.00;0.00;;;;;;;17.38;53.46;100258.84;4977788;28;20065;-72
2023/06/17 03:40:16;;;;;;;0.00;0.00;;;;;;;17.46;53.20;100258.06;4960773;28;20403;-73
2023/06/17 03:42:42;;;;;;;0.00;0.00;;;;;;;17.49;53.24;100251.91;4979927;28;20049;-72
2023/06/17 03:45:07;;;;;;;0.00;0.00;;;;;;;17.56;53.11;100246.75;4956477;28;20065;-72
2023/06/17 03:47:33;;;;;;;0.00;0.00;;;;;;;17.61;53.48;100245.81;4982801;28;20077;-72
2023/06/17 03:49:59;;;;;;;0.00;0.00;;;;;;;17.63;53.78;100243.53;4976112;28;20430;-72
2023/06/17 03:52:25;;;;;;;0.00;0.00;;;;;;;17.63;53.91;100247.09;4989578;28;20121;-73
2023/06/17 03:54:50;;;;;;;0.00;0.00;;;;;;;17.59;54.23;100243.34;4980326;28;20046;-74
2023/06/17 03:57:16;;;;;;;0.00;0.00;;;;;;;17.56;54.19;100241.22;4967682;28;20035;-71
2023/06/17 03:59:42;;;;;;;0.00;0.00;;;;;;;17.48;54.32;100233.72;4989149;28;20612;-72
2023/06/17 04:02:07;;;;;;;0.00;0.00;;;;;;;17.47;54.56;100243.13;4976070;28;20149;-71
2023/06/17 04:04:34;;;;;;;0.00;0.00;;;;;;;17.47;54.52;100236.78;4977934;28;20813;-72
2023/06/17 04:07:01;;;;;;;0.00;0.00;;;;;;;17.45;54.60;100234.34;4974356;28;20038;-71
2023/06/17 04:09:26;;;;;;;0.00;0.00;;;;;;;17.47;54.83;100236.78;4968028;28;20137;-71
2023/06/17 04:11:51;;;;;;;0.00;0.00;;;;;;;17.49;54.65;100234.50;4950018;28;20034;-71
2023/06/17 04:14:17;;;;;;;0.00;0.00;;;;;;;17.50;54.67;100225.09;4962301;28;20030;-71
2023/06/17 04:16:43;;;;;;;0.00;0.00;;;;;;;17.51;54.38;100218.41;4980422;28;20117;-71
2023/06/17 04:19:13;;;;;;;0.00;0.00;;;;;;;17.53;54.51;100219.72;4983223;28;20036;-71
2023/06/17 04:21:39;;;;;;;0.00;0.00;;;;;;;17.57;54.41;100215.19;4978995;28;20120;-72
2023/06/17 04:24:04;;;;;;;0.00;0.00;;;;;;;17.61;54.30;100218.16;4958380;28;20069;-71
2023/06/17 04:26:30;;;;;;;0.00;0.00;;;;;;;17.61;54.45;100218.97;4963551;28;20039;-70
2023/06/17 04:28:55;;;;;;;0.00;0.00;;;;;;;17.65;54.22;100216.38;4974005;28;20042;-71
2023/06/17 04:31:21;;;;;;;0.00;0.00;;;;;;;17.68;54.58;100214.91;4978415;28;20771;-70
2023/06/17 04:33:47;;;;;;;0.00;0.00;;;;;;;17.65;54.41;100204.50;4973634;28;20038;-71
2023/06/17 04:36:14;;;;;;;0.00;0.00;;;;;;;17.67;54.75;100210.53;4963746;28;20641;-71
2023/06/17 04:38:39;;;;;;;0.00;0.00;;;;;;;17.63;54.64;100213.91;4978739;28;20150;-72
2023/06/17 04:41:05;;;;;;;0.00;0.00;;;;;;;17.60;54.41;100211.81;4973633;28;20121;-72
2023/06/17 04:43:33;;;;;;;0.00;0.00;;;;;;;17.55;54.53;100211.94;4971768;28;20093;-72
2023/06/17 04:45:59;;;;;;;0.00;0.00;;;;;;;17.57;54.78;100220.72;4974755;28;20030;-72
2023/06/17 04:48:25;;;;;;;0.00;0.00;;;;;;;17.56;54.48;100219.09;4972618;28;20143;-71
2023/06/17 04:50:52;;;;;;;0.00;0.00;;;;;;;17.62;54.67;100212.31;4980640;28;20050;-72
2023/06/17 04:53:18;;;;;;;0.00;0.00;;;;;;;17.67;55.03;100225.19;4973906;28;20073;-71
2023/06/17 04:55:43;;;;;;;0.00;0.00;;;;;;;17.63;54.70;100236.03;4979232;28;20485;-71
2023/06/17 04:58:09;;;;;;;0.00;0.00;;;;;;;17.58;54.69;100246.41;4956049;28;20030;-72
2023/06/17 05:00:34;;;;;;;0.00;0.00;;;;;;;17.56;54.81;100246.75;4957589;28;20038;-72
2023/06/17 05:02:59;;;;;;;0.00;0.00;;;;;;;17.55;55.39;100249.81;4975819;28;20089;-72
2023/06/17 05:05:25;;;;;;;0.00;0.00;;;;;;;17.49;54.91;100245.56;4980491;28;20084;-72
2023/06/17 05:07:50;;;;;;;0.00;0.00;;;;;;;17.53;55.60;100241.84;4962892;28;20552;-72
2023/06/17 05:10:16;;;;;;;0.00;0.00;;;;;;;17.58;55.51;100249.19;4978674;28;20113;-71
2023/06/17 05:12:41;;;;;;;0.00;0.00;;;;;;;17.60;55.42;100247.75;4973955;28;20035;-71
2023/06/17 05:15:08;;;;;;;0.00;0.00;;;;;;;17.63;54.43;100241.56;4976188;28;20030;-72
2023/06/17 05:17:33;;;;;;;0.00;0.00;;;;;;;17.76;54.19;100245.38;4971954;28;20481;-71
2023/06/17 05:19:58;;;;;;;0.00;0.00;;;;;;;17.85;54.47;100241.84;4968576;28;20049;-70
2023/06/17 05:22:24;;;;;;;0.00;0.00;;;;;;;17.92;54.38;100258.81;4973712;28;20034;-71
2023/06/17 05:24:49;;;;;;;0.00;0.00;;;;;;;17.94;54.55;100259.31;4977628;28;20096;-69
2023/06/17 05:27:15;;;;;;;0.00;0.00;;;;;;;17.97;54.88;100261.44;4981425;28;20468;-72
2023/06/17 05:29:40;;;;;;;0.00;0.00;;;;;;;17.92;55.71;100259.63;4971495;28;20109;-70
2023/06/17 05:32:06;;;;;;;0.00;0.00;;;;;;;17.87;55.67;100253.38;4971826;28;20045;-70
2023/06/17 05:34:31;;;;;;;0.00;0.00;;;;;;;17.81;55.96;100236.13;4976528;28;20023;-71
2023/06/17 05:36:57;;;;;;;0.00;0.00;;;;;;;17.82;55.69;100221.16;4974762;28;20034;-72
2023/06/17 05:39:24;;;;;;;0.00;0.00;;;;;;;17.96;55.69;100219.13;4974486;28;20639;-71
2023/06/17 05:41:50;;;;;;;0.00;0.00;;;;;;;18.10;54.89;100232.03;4980707;28;20447;-70
2023/06/17 05:44:15;;;;;;;0.00;0.00;;;;;;;18.12;54.61;100229.72;4980399;28;20125;-70
2023/06/17 05:46:40;;;;;;;0.00;0.00;;;;;;;18.17;55.03;100242.63;4961541;28;20058;-71
2023/06/17 05:49:06;;;;;;;0.00;0.00;;;;;;;18.13;54.79;100242.44;4985238;28;20041;-71
2023/06/17 05:51:31;;;;;;;0.00;0.00;;;;;;;18.12;54.69;100251.88;4971174;28;20034;-71
2023/06/17 05:53:57;;;;;;;0.00;0.00;;;;;;;18.10;54.27;100259.69;4976381;28;20133;-71
2023/06/17 05:56:22;;;;;;;0.00;0.00;;;;;;;18.01;55.04;100258.84;4981557;28;20030;-70
2023/06/17 05:58:50;;;;;;;0.00;0.00;;;;;;;17.90;54.82;100250.84;4979821;28;20038;-70
2023/06/17 06:01:16;;;;;;;0.00;0.00;;;;;;;17.88;54.50;100253.06;4983467;28;20034;-71
2023/06/17 06:03:42;;;;;;;0.00;0.00;;;;;;;17.87;54.74;100245.94;4975064;28;20026;-72
2023/06/17 06:06:07;;;;;;;0.00;0.00;;;;;;;17.85;53.99;100256.47;4967290;28;20428;-70
2023/06/17 06:08:32;;;;;;;0.00;0.00;;;;;;;17.91;54.00;100251.66;4979685;28;20038;-71
2023/06/17 06:10:59;;;;;;;0.00;0.00;;;;;;;17.95;53.61;100249.88;4970733;28;20057;-71
2023/06/17 06:13:24;;;;;;;0.00;0.00;;;;;;;17.96;53.69;100257.06;4971082;28;20037;-71
2023/06/17 06:15:50;;;;;;;0.00;0.00;;;;;;;17.91;54.22;100244.16;4968069;28;20026;-71
2023/06/17 06:18:15;;;;;;;0.00;0.00;;;;;;;17.95;53.96;100253.44;4971172;28;20031;-71
2023/06/17 06:20:41;;;;;;;0.00;0.00;;;;;;;18.00;54.09;100254.44;4982400;28;20038;-72
2023/06/17 06:23:06;;;;;;;0.00;0.00;;;;;;;18.09;54.09;100253.34;4966299;28;20161;-72
2023/06/17 06:25:32;;;;;;;0.00;0.00;;;;;;;18.14;53.78;100244.09;4989160;28;20041;-72
2023/06/17 06:27:58;;;;;;;0.00;0.00;;;;;;;18.22;54.41;100239.69;4978603;28;20556;-72
2023/06/17 06:30:24;;;;;;;0.00;0.00;;;;;;;18.43;54.82;100242.69;4977122;28;20085;-72
2023/06/17 06:32:50;;;;;;;0.00;0.00;;;;;;;18.51;54.52;100235.53;4977049;28;20053;-71
2023/06/17 06:35:16;;;;;;;0.00;0.00;;;;;;;18.57;54.74;100234.22;4978820;28;20057;-72
2023/06/17 06:37:41;;;;;;;0.00;0.00;;;;;;;18.60;54.63;100239.94;4983529;28;20029;-72
2023/06/17 06:40:07;;;;;;;0.00;0.00;;;;;;;18.64;55.19;100242.84;4968110;28;20023;-72
2023/06/17 06:42:36;;;;;;;0.00;0.00;;;;;;;18.71;55.39;100245.16;4977898;28;20031;-72
2023/06/17 06:45:01;;;;;;;0.00;0.00;;;;;;;18.80;54.83;100244.00;4966888;28;20045;-70
2023/06/17 06:47:27;;;;;;;0.00;0.00;;;;;;;18.88;54.89;100249.88;4974154;28;20043;-71
2023/06/17 06:49:53;;;;;;;0.00;0.00;;;;;;;18.93;54.73;100245.00;4973133;28;20030;-71
2023/06/17 06:52:19;;;;;;;0.00;0.00;;;;;;;19.05;54.74;100254.63;4978403;28;20069;-70
2023/06/17 06:54:44;;;;;;;0.00;0.00;;;;;;;19.08;54.67;100253.97;4983217;28;20042;-71
2023/06/17 06:57:10;;;;;;;0.00;0.00;;;;;;;19.11;54.41;100270.72;4976616;28;20031;-71
2023/06/17 06:59:37;;;;;;;0.00;0.00;;;;;;;19.07;53.92;100261.47;4955312;28;20094;-71
2023/06/17 07:02:03;;;;;;;0.00;0.00;;;;;;;19.12;54.49;100275.13;4974026;28;21189;-71
2023/06/17 07:04:28;;;;;;;0.00;0.00;;;;;;;19.13;54.29;100264.88;4977290;28;20038;-71
2023/06/17 07:06:54;;;;;;;0.00;0.00;;;;;;;19.23;54.09;100256.22;4975412;28;20033;-71
2023/06/17 07:09:19;;;;;;;0.00;0.00;;;;;;;19.50;53.93;100254.19;4960981;28;20120;-71
2023/06/17 07:11:45;;;;;;;0.00;0.00;;;;;;;19.76;53.57;100245.81;4982801;28;20034;-72
2023/06/17 07:14:11;;;;;;;0.00;0.00;;;;;;;20.00;53.05;100236.88;4975137;28;20117;-71
2023/06/17 07:16:37;;;;;;;0.00;0.00;;;;;;;20.22;52.50;100229.44;4975438;28;20062;-72
2023/06/17 07:19:03;;;;;;;0.00;0.00;;;;;;;20.40;52.39;100230.94;4973435;28;20121;-71
2023/06/17 07:21:29;;;;;;;0.00;0.00;;;;;;;20.60;51.62;100222.16;4966470;28;20536;-72
2023/06/17 07:23:54;;;;;;;0.00;0.00;;;;;;;20.75;51.43;100229.91;4981458;28;20093;-71
2023/06/17 07:26:20;;;;;;;0.00;0.00;;;;;;;20.87;50.80;100216.06;4967610;28;20792;-70
2023/06/17 07:28:45;;;;;;;0.00;0.00;;;;;;;20.92;50.43;100212.25;4967432;28;20121;-72
2023/06/17 07:31:12;;;;;;;0.00;0.00;;;;;;;21.04;50.06;100226.22;4981566;28;20396;-70
2023/06/17 07:33:38;;;;;;;0.00;0.00;;;;;;;21.08;50.19;100227.16;4978008;28;20483;-71
2023/06/17 07:36:04;;;;;;;0.00;0.00;;;;;;;21.16;49.94;100238.50;4966998;28;20081;-71
2023/06/17 07:38:32;;;;;;;0.00;0.00;;;;;;;21.23;49.88;100238.78;4978314;28;20189;-71
2023/06/17 07:40:57;;;;;;;0.00;0.00;;;;;;;21.43;49.91;100246.25;4941908;28;20448;-73
2023/06/17 07:43:25;;;;;;;0.00;0.00;;;;;;;21.62;49.64;100244.94;4970855;28;20027;-72
2023/06/17 07:45:51;;;;;;;0.00;0.00;;;;;;;21.88;49.81;100252.16;4967784;28;20034;-71
2023/06/17 07:48:17;;;;;;;0.00;0.00;;;;;;;22.11;49.13;100252.50;4970267;28;20153;-73
2023/06/17 07:50:42;;;;;;;0.00;0.00;;;;;;;22.29;49.08;100250.28;4979480;28;20141;-72
2023/06/17 07:53:08;;;;;;;0.00;0.00;;;;;;;22.48;48.07;100253.28;4969312;28;20047;-72
2023/06/17 07:55:33;;;;;;;0.00;0.00;;;;;;;22.58;47.68;100251.19;4968030;28;20105;-72
2023/06/17 07:57:59;;;;;;;0.00;0.00;;;;;;;22.73;47.36;100253.22;4975585;28;20402;-72
2023/06/17 08:00:26;;;;;;;0.00;0.00;;;;;;;22.70;47.29;100242.78;4967418;28;20030;-71
2023/06/17 08:02:51;;;;;;;0.00;0.00;;;;;;;22.86;46.65;100251.22;4972976;28;20464;-72
2023/06/17 08:05:17;;;;;;;0.00;0.00;;;;;;;23.14;46.94;100240.13;4984468;28;20030;-76
2023/06/17 08:07:42;;;;;;;0.00;0.00;;;;;;;23.41;46.37;100236.81;4960072;28;20221;-73
2023/06/17 08:10:08;;;;;;;0.00;0.00;;;;;;;23.68;46.03;100235.13;4945670;28;20691;-73
2023/06/17 08:12:36;;;;;;;0.00;0.00;;;;;;;23.88;45.77;100228.50;4973423;28;20053;-73
2023/06/17 08:15:01;;;;;;;0.00;0.00;;;;;;;24.00;45.66;100229.56;4957551;28;20064;-73
2023/06/17 08:17:27;;;;;;;0.00;0.00;;;;;;;24.15;44.54;100231.53;4981766;28;20066;-73
2023/06/17 08:19:52;;;;;;;0.00;0.00;;;;;;;24.38;44.79;100228.06;4977608;28;20058;-73
2023/06/17 08:22:20;;;;;;;0.00;0.00;;;;;;;24.57;44.33;100218.88;4964990;28;20041;-75
2023/06/17 08:24:46;;;;;;;0.00;0.00;;;;;;;24.83;43.36;100220.25;4975356;28;20392;-74
2023/06/17 08:27:12;;;;;;;0.00;0.00;;;;;;;25.15;43.25;100223.69;4989192;28;20488;-74
2023/06/17 08:29:37;;;;;;;0.00;0.00;;;;;;;25.47;42.59;100225.50;4980918;28;20038;-74
2023/06/17 08:32:03;;;;;;;0.00;0.00;;;;;;;25.71;42.64;100218.72;4966279;28;20045;-74
2023/06/17 08:34:31;;;;;;;0.00;0.00;;;;;;;25.87;42.02;100212.97;4978481;28;20468;-73
2023/06/17 08:36:57;;;;;;;0.00;0.00;;;;;;;26.00;41.46;100219.22;4962731;28;20048;-73
2023/06/17 08:39:23;;;;;;;0.00;0.00;;;;;;;26.02;41.67;100211.22;4972090;28;20050;-74
2023/06/17 08:41:49;;;;;;;0.00;0.00;;;;;;;26.01;41.40;100204.81;4955129;28;20046;-73
2023/06/17 08:44:18;;;;;;;0.00;0.00;;;;;;;25.99;41.14;100206.34;4989222;28;20037;-73
2023/06/17 08:46:46;;;;;;;0.00;0.00;;;;;;;26.01;41.30;100209.63;4969168;28;20077;-71
2023/06/17 08:49:12;;;;;;;0.00;0.00;;;;;;;26.09;40.85;100209.38;4969286;28;20045;-72
2023/06/17 08:51:39;;;;;;;0.00;0.00;;;;;;;26.19;40.46;100202.28;4954366;28;20034;-73
2023/06/17 08:54:05;;;;;;;0.00;0.00;;;;;;;26.30;40.06;100208.84;4951209;28;20047;-74
2023/06/17 08:56:31;;;;;;;0.00;0.00;;;;;;;26.48;40.40;100211.09;4971045;28;20031;-75
2023/06/17 08:58:59;;;;;;;0.00;0.00;;;;;;;26.72;39.24;100209.03;4960434;28;20093;-74
2023/06/17 09:01:26;;;;;;;0.00;0.00;;;;;;;26.88;39.08;100206.00;4974871;28;20522;-75
2023/06/17 09:03:53;;;;;;;0.00;0.00;;;;;;;26.93;38.33;100209.28;4975578;28;20057;-74
2023/06/17 09:06:23;;;;;;;0.00;0.00;;;;;;;26.97;38.24;100209.31;4978614;28;20096;-77
2023/06/17 09:08:50;;;;;;;0.00;0.00;;;;;;;27.00;38.01;100209.38;4980965;28;20073;-78
2023/06/17 09:11:16;;;;;;;0.00;0.00;;;;;;;27.23;37.54;100199.19;4954151;28;20069;-76
2023/06/17 09:13:42;;;;;;;0.00;0.00;;;;;;;27.55;37.42;100193.88;4984870;28;20057;-74
2023/06/17 09:16:08;;;;;;;0.00;0.00;;;;;;;27.70;36.73;100200.47;4978611;28;21305;-75
2023/06/17 09:18:35;;;;;;;0.00;0.00;;;;;;;27.78;36.37;100202.09;4979967;28;20080;-75
2023/06/17 09:21:03;;;;;;;0.00;0.00;;;;;;;27.85;36.40;100190.94;4975277;28;20469;-76
2023/06/17 09:23:29;;;;;;;0.00;0.00;;;;;;;28.13;36.11;100183.13;5003193;28;20034;-76
2023/06/17 09:26:02;;;;;;;0.00;0.00;;;;;;;28.38;35.68;100186.06;4983743;28;20523;-77
2023/06/17 09:28:30;;;;;;;0.00;0.00;;;;;;;28.53;35.15;100181.31;4974968;28;20034;-74
2023/06/17 09:30:59;;;;;;;0.00;0.00;;;;;;;28.67;34.46;100184.22;4984459;28;20117;-76
2023/06/17 09:33:26;;;;;;;0.00;0.00;;;;;;;28.77;33.97;100184.63;4983447;28;20053;-76
2023/06/17 09:36:11;;;;;;;0.00;0.00;;;;;;;29.01;34.18;100185.94;4973359;28;20061;-79
2023/06/17 09:38:37;;;;;;;0.00;0.00;;;;;;;29.27;33.79;100181.19;4961181;28;20038;-73
2023/06/17 09:41:03;;;;;;;0.00;0.00;;;;;;;29.41;33.77;100178.41;4973273;28;20045;-73
2023/06/17 09:43:29;;;;;;;0.00;0.00;;;;;;;29.59;33.44;100178.41;4976243;28;20038;-74
2023/06/17 09:45:59;;;;;;;0.00;0.00;;;;;;;29.98;33.15;100173.94;4970270;28;20181;-75
2023/06/17 09:48:30;;;;;;;0.00;0.00;;;;;;;30.51;32.32;100178.66;4979046;28;20080;-74
2023/06/17 09:50:56;;;;;;;0.00;0.00;;;;;;;30.86;31.87;100176.91;4983483;28;20038;-74
2023/06/17 09:53:29;;;;;;;0.00;0.00;;;;;;;31.14;31.73;100173.13;4973863;28;20058;-74
2023/06/17 09:55:57;;;;;;;0.00;0.00;;;;;;;31.29;31.44;100171.03;4985783;28;20026;-74
2023/06/17 09:58:31;;;;;;;0.00;0.00;;;;;;;31.37;31.21;100168.16;4975938;28;20050;-74
2023/06/17 10:01:05;;;;;;;0.00;0.00;;;;;;;31.43;31.21;100163.66;4975023;28;20473;-75
2023/06/17 10:03:33;;;;;;;0.00;0.00;;;;;;;31.39;30.62;100165.69;4979984;28;20022;-75
2023/06/17 10:06:14;;;;;;;0.00;0.00;;;;;;;31.55;30.61;100156.69;4977736;28;20035;-75
2023/06/17 10:08:42;;;;;;;0.00;0.00;;;;;;;31.92;30.43;100166.44;4981874;28;20041;-76
2023/06/17 10:11:26;;;;;;;0.00;0.00;;;;;;;32.43;29.79;100161.88;4976324;28;20502;-76
2023/06/17 10:14:16;;;;;;;0.00;0.00;;;;;;;32.86;29.37;100169.84;4964958;28;20022;-75
2023/06/17 10:16:45;;;;;;;0.00;0.00;;;;;;;32.79;29.41;100161.44;4974919;28;20496;-74
2023/06/17 10:19:17;;;;;;;0.00;0.00;;;;;;;32.68;29.15;100160.78;4982503;28;20370;-75
2023/06/17 10:21:46;;;;;;;0.00;0.00;;;;;;;32.71;28.92;100159.94;4981663;28;20036;-73
2023/06/17 10:24:13;;;;;;;0.00;0.00;;;;;;;32.78;28.24;100165.50;4990112;28;20022;-74
2023/06/17 10:26:39;;;;;;;0.00;0.00;;;;;;;32.82;27.90;100166.25;4983107;28;20029;-73
2023/06/17 10:29:10;;;;;;;0.00;0.00;;;;;;;32.91;27.75;100162.88;4968643;28;20466;-75
2023/06/17 10:31:44;;;;;;;0.00;0.00;;;;;;;33.14;27.66;100164.97;4981320;28;20038;-75
2023/06/17 10:34:20;;;;;;;0.00;0.00;;;;;;;33.29;27.51;100156.28;4980806;28;20041;-75
2023/06/17 10:36:58;;;;;;;0.00;0.00;;;;;;;33.65;27.53;100147.19;4982219;28;20688;-74
2023/06/17 10:39:24;;;;;;;0.00;0.00;;;;;;;33.74;26.84;100144.63;4987850;28;20031;-76
2023/06/17 10:41:50;;;;;;;0.00;0.00;;;;;;;33.90;27.21;100150.38;4980993;28;20041;-76
2023/06/17 10:44:34;;;;;;;0.00;0.00;;;;;;;34.36;26.39;100144.25;4983717;28;20919;-76
2023/06/17 10:47:00;;;;;;;;;;;;;;;34.50;26.58;100148.84;4982273;28;20026;-74
2023/06/17 10:49:36;;;;;;;0.00;0.00;;;;;;;34.72;26.40;100149.19;4985473;28;20373;-77
2023/06/17 10:52:03;;;;;;;0.00;0.00;;;;;;;34.97;26.20;100148.63;4971355;28;20023;-73
2023/06/17 10:54:33;;;;;;;0.00;0.00;;;;;;;35.25;25.52;100144.31;4984933;28;20089;-75
2023/06/17 10:57:04;;;;;;;0.00;0.00;;;;;;;35.47;25.62;100158.00;4950363;28;20305;-73
2023/06/17 10:59:31;;;;;;;0.00;0.00;;;;;;;35.43;25.24;100138.22;4976553;28;20485;-73
2023/06/17 11:02:06;;;;;;;0.00;0.00;;;;;;;35.44;25.03;100136.16;4976326;28;20031;-72
2023/06/17 11:04:32;;;;;;;0.00;0.00;;;;;;;35.55;25.11;100138.75;4978353;28;20046;-74
2023/06/17 11:06:59;;;;;;;0.00;0.00;;;;;;;35.27;24.72;100132.50;4975607;28;20034;-74
2023/06/17 11:09:29;;;;;;;0.00;0.00;;;;;;;35.11;25.40;100131.25;4979860;28;20888;-75
2023/06/17 11:11:55;;;;;;;0.00;0.00;;;;;;;35.24;25.55;100128.50;4977554;28;20034;-73
2023/06/17 11:14:22;;;;;;;0.00;0.00;;;;;;;35.71;25.52;100135.09;4972185;28;20038;-74
2023/06/17 11:16:49;;;;;;;0.00;0.00;;;;;;;36.26;25.10;100120.97;4973288;28;20089;-72
2023/06/17 11:19:15;;;;;;;0.00;0.00;;;;;;;36.62;23.98;100120.72;4983455;28;20043;-73
2023/06/17 11:21:41;;;;;;;0.00;0.00;;;;;;;37.28;23.98;100128.88;4968011;28;20041;-74
2023/06/17 11:24:07;;;;;;;0.00;0.00;;;;;;;38.06;22.83;100127.38;4974101;28;20046;-73